Robeline, Louisiana
Current Conditions -  °F | °C
As of 11:15 AM on Saturday 20 Dec 2014 (Local Time) from KIER Reporting Station
Overcast Overcast  
Wind Chill: 43°   Ceiling: 700
Heat Index: 46°   Visibility: 10mi
Dew Point: 44°   Wind: 7mph
Humidity: 92%   Direction: 20°NNE
Pressure: 30.25"   Gusts: NA
Location:  31.69°N, 93.3°W
Report Text: KIER 201715Z AUTO 02006KT 10SM OVC007 08/07 A3025 RMK AO2 T00800067
Loading
Personal Weather Stations






























Interactive Weather Map New forecast layout! Learn more

10-Day Weather Forecast

Advertisements
Track Severe Weather on mobile